Time;durP1;ratioP1;P1;durP2;ratioP2;P2;SDS_P1;SDS_P2;PMS_P1;PMS_P2;Temp;Humidity;BMP_temperature;BMP_pressure;BME280_temperature;BME280_humidity;BME280_pressure;Samples;Min_cycle;Max_cycle;Signal;HPM_P1;HPM_P2
2024/01/15 00:01:12;;;;;;;4.53;2.83;;;;;;;;;;4975895;28;20040;-82
2024/01/15 00:03:37;;;;;;;6.22;2.75;;;;;;;;;;4995597;28;20452;-82
2024/01/15 00:06:03;;;;;;;4.10;2.67;;;;;;;;;;4999275;28;20038;-82
2024/01/15 00:08:29;;;;;;;7.60;3.30;;;;;;;;;;4994484;28;20026;-81
2024/01/15 00:10:54;;;;;;;4.95;2.70;;;;;;;;;;4989764;28;20411;-82
2024/01/15 00:13:20;;;;;;;4.88;2.85;;;;;;;;;;4995180;28;20101;-82
2024/01/15 00:15:45;;;;;;;5.40;3.00;;;;;;;;;;4998690;28;20036;-83
2024/01/15 00:18:11;;;;;;;6.10;2.95;;;;;;;;;;4997921;28;20045;-83
2024/01/15 00:20:36;;;;;;;9.25;3.17;;;;;;;;;;4980406;28;20526;-83
2024/01/15 00:23:02;;;;;;;4.93;3.00;;;;;;;;;;4990944;28;20038;-83
2024/01/15 00:25:27;;;;;;;7.43;3.38;;;;;;;;;;4997568;28;20026;-82
2024/01/15 00:27:53;;;;;;;5.50;3.13;;;;;;;;;;4980391;28;20073;-83
2024/01/15 00:30:18;;;;;;;6.25;3.10;;;;;;;;;;4995329;28;20042;-82
2024/01/15 00:32:44;;;;;;;5.28;2.90;;;;;;;;;;4985882;28;20085;-83
2024/01/15 00:35:09;;;;;;;4.88;2.83;;;;;;;;;;4995163;28;20499;-83
2024/01/15 00:37:35;;;;;;;8.18;2.92;;;;;;;;;;5000873;28;20026;-83
2024/01/15 00:40:00;;;;;;;4.60;2.70;;;;;;;;;;4979886;28;20050;-83
2024/01/15 00:42:26;;;;;;;6.28;2.90;;;;;;;;;;4995366;28;20066;-82
2024/01/15 00:44:51;;;;;;;5.47;3.08;;;;;;;;;;4978049;28;20030;-82
2024/01/15 00:47:18;;;;;;;4.85;2.83;;;;;;;;;;4996318;28;20037;-83
2024/01/15 00:49:44;;;;;;;6.95;3.30;;;;;;;;;;4977168;28;20034;-83
2024/01/15 00:52:09;;;;;;;5.60;2.95;;;;;;;;;;4992436;28;20511;-82
2024/01/15 00:54:35;;;;;;;5.05;3.10;;;;;;;;;;4997372;28;20030;-83
2024/01/15 00:57:01;;;;;;;5.47;3.05;;;;;;;;;;4995146;28;20062;-82
2024/01/15 00:59:26;;;;;;;4.93;3.15;;;;;;;;;;4995334;28;20038;-83
2024/01/15 01:01:52;;;;;;;4.40;2.83;;;;;;;;;;4997456;28;20045;-82
2024/01/15 01:04:17;;;;;;;6.47;3.28;;;;;;;;;;4975843;28;20022;-82
2024/01/15 01:06:43;;;;;;;4.88;2.80;;;;;;;;;;4980652;28;20038;-83
2024/01/15 01:09:08;;;;;;;4.70;2.65;;;;;;;;;;4994294;28;20018;-83
2024/01/15 01:11:34;;;;;;;9.07;6.05;;;;;;;;;;4992467;28;20030;-83
2024/01/15 01:14:00;;;;;;;5.82;3.80;;;;;;;;;;4993506;28;20068;-83
2024/01/15 01:16:26;;;;;;;8.07;3.83;;;;;;;;;;4995406;28;20408;-82
2024/01/15 01:18:51;;;;;;;6.05;2.60;;;;;;;;;;4996336;28;20038;-82
2024/01/15 01:21:17;;;;;;;4.05;2.20;;;;;;;;;;4996890;28;20030;-82
2024/01/15 01:23:42;;;;;;;3.25;1.98;;;;;;;;;;4996225;28;20058;-82
2024/01/15 01:26:07;;;;;;;3.00;1.85;;;;;;;;;;4988259;28;20112;-82
2024/01/15 01:28:33;;;;;;;2.70;1.65;;;;;;;;;;4993142;28;20026;-82
2024/01/15 01:30:59;;;;;;;3.75;1.88;;;;;;;;;;4993803;28;20038;-82
2024/01/15 01:33:25;;;;;;;3.13;1.83;;;;;;;;;;4989893;28;20396;-81
2024/01/15 01:35:50;;;;;;;3.25;1.80;;;;;;;;;;4985777;28;20062;-82
2024/01/15 01:38:16;;;;;;;2.83;1.90;;;;;;;;;;4994508;28;20390;-82
2024/01/15 01:40:41;;;;;;;3.45;1.80;;;;;;;;;;4991997;28;20039;-83
2024/01/15 01:43:09;;;;;;;2.45;1.63;;;;;;;;;;4994140;28;20035;-83
2024/01/15 01:45:34;;;;;;;3.60;2.00;;;;;;;;;;4993514;28;20022;-83
2024/01/15 01:48:01;;;;;;;3.58;2.15;;;;;;;;;;4989729;28;20069;-83
2024/01/15 01:50:29;;;;;;;4.53;2.00;;;;;;;;;;4993531;28;20087;-83
2024/01/15 01:52:55;;;;;;;2.80;1.58;;;;;;;;;;4991131;28;20125;-83
2024/01/15 01:55:24;;;;;;;4.72;1.90;;;;;;;;;;4990121;28;20031;-83
2024/01/15 01:57:50;;;;;;;2.85;1.90;;;;;;;;;;5003332;28;20112;-83
2024/01/15 02:00:18;;;;;;;3.78;2.10;;;;;;;;;;4994001;28;20031;-83
2024/01/15 02:02:44;;;;;;;3.78;2.00;;;;;;;;;;4993296;28;20537;-83
2024/01/15 02:05:11;;;;;;;3.25;1.80;;;;;;;;;;4995564;28;20092;-83
2024/01/15 02:07:37;;;;;;;3.80;2.05;;;;;;;;;;4990770;28;20040;-83
2024/01/15 02:10:03;;;;;;;4.63;1.85;;;;;;;;;;4992340;28;20048;-83
2024/01/15 02:12:29;;;;;;;3.88;1.88;;;;;;;;;;4991156;28;20500;-83
2024/01/15 02:14:54;;;;;;;2.95;1.90;;;;;;;;;;4990492;28;20043;-83
2024/01/15 02:17:20;;;;;;;3.60;2.00;;;;;;;;;;4991599;28;20041;-83
2024/01/15 02:19:45;;;;;;;3.08;2.08;;;;;;;;;;4976879;28;20041;-83
2024/01/15 02:22:10;;;;;;;4.15;2.30;;;;;;;;;;4995368;28;20042;-83
2024/01/15 02:24:36;;;;;;;3.72;2.30;;;;;;;;;;4998188;28;20105;-83
2024/01/15 02:27:02;;;;;;;3.53;1.95;;;;;;;;;;4998304;28;20459;-83
2024/01/15 02:29:27;;;;;;;3.70;2.28;;;;;;;;;;4978781;28;20484;-83
2024/01/15 02:31:53;;;;;;;5.53;2.80;;;;;;;;;;4996978;28;20058;-83
2024/01/15 02:34:18;;;;;;;6.78;3.45;;;;;;;;;;4998342;28;20046;-82
2024/01/15 02:36:44;;;;;;;6.25;3.70;;;;;;;;;;4998263;28;20034;-83
2024/01/15 02:39:09;;;;;;;6.10;3.42;;;;;;;;;;4994680;28;20531;-83
2024/01/15 02:41:35;;;;;;;7.40;3.90;;;;;;;;;;4997649;28;20041;-83
2024/01/15 02:44:00;;;;;;;11.40;4.70;;;;;;;;;;4976323;28;20037;-82
2024/01/15 02:46:25;;;;;;;9.48;3.90;;;;;;;;;;4998894;28;20451;-83
2024/01/15 02:48:51;;;;;;;9.70;5.20;;;;;;;;;;4974687;28;20034;-83
2024/01/15 02:51:16;;;;;;;11.75;5.63;;;;;;;;;;4989529;28;20501;-83
2024/01/15 02:53:42;;;;;;;10.73;5.55;;;;;;;;;;4997586;28;20049;-83
2024/01/15 02:56:07;;;;;;;12.43;5.35;;;;;;;;;;4995939;28;20120;-83
2024/01/15 02:58:33;;;;;;;12.38;6.03;;;;;;;;;;4996316;28;20034;-82
2024/01/15 03:00:58;;;;;;;11.45;5.60;;;;;;;;;;4995862;28;20026;-83
2024/01/15 03:03:24;;;;;;;12.25;5.85;;;;;;;;;;4995743;28;20068;-83
2024/01/15 03:05:49;;;;;;;14.73;6.32;;;;;;;;;;4997944;28;20034;-82
2024/01/15 03:08:15;;;;;;;12.85;6.10;;;;;;;;;;4997896;28;20039;-83
2024/01/15 03:10:40;;;;;;;12.13;5.78;;;;;;;;;;4999136;28;20034;-82
2024/01/15 03:13:06;;;;;;;14.23;7.00;;;;;;;;;;4993515;28;20034;-82
2024/01/15 03:15:31;;;;;;;12.57;6.07;;;;;;;;;;4997273;28;20045;-82
2024/01/15 03:17:56;;;;;;;12.57;6.30;;;;;;;;;;4994176;28;20070;-83
2024/01/15 03:20:22;;;;;;;13.73;6.40;;;;;;;;;;4995951;28;20030;-82
2024/01/15 03:22:48;;;;;;;11.82;5.80;;;;;;;;;;4992795;28;20586;-82
2024/01/15 03:25:13;;;;;;;14.48;6.13;;;;;;;;;;4994084;28;20031;-83
2024/01/15 03:27:38;;;;;;;12.45;5.63;;;;;;;;;;4996454;28;20600;-84
2024/01/15 03:30:04;;;;;;;10.90;5.65;;;;;;;;;;4996923;28;20061;-83
2024/01/15 03:32:30;;;;;;;11.32;5.72;;;;;;;;;;4997737;28;20104;-83
2024/01/15 03:34:55;;;;;;;12.88;5.80;;;;;;;;;;4993052;28;20041;-83
2024/01/15 03:37:21;;;;;;;10.93;5.70;;;;;;;;;;4975261;28;20041;-83
2024/01/15 03:39:46;;;;;;;13.80;6.32;;;;;;;;;;4975592;28;20026;-82
2024/01/15 03:42:12;;;;;;;11.93;5.72;;;;;;;;;;4995434;28;20089;-83
2024/01/15 03:44:37;;;;;;;12.90;6.00;;;;;;;;;;4996456;28;20396;-82
2024/01/15 03:47:03;;;;;;;8.98;5.53;;;;;;;;;;4996724;28;20058;-82
2024/01/15 03:49:28;;;;;;;11.70;5.57;;;;;;;;;;4980091;28;20081;-83
2024/01/15 03:51:54;;;;;;;11.65;5.70;;;;;;;;;;4993669;28;20255;-83
2024/01/15 03:54:19;;;;;;;11.40;5.82;;;;;;;;;;4989521;28;20086;-83
2024/01/15 03:56:44;;;;;;;11.95;5.65;;;;;;;;;;4995374;28;20034;-83
2024/01/15 03:59:10;;;;;;;11.02;5.10;;;;;;;;;;4997003;28;20496;-82
2024/01/15 04:01:35;;;;;;;11.55;5.68;;;;;;;;;;4993661;28;20038;-82
2024/01/15 04:04:01;;;;;;;11.27;5.47;;;;;;;;;;4995623;28;20046;-82
2024/01/15 04:06:26;;;;;;;10.82;5.05;;;;;;;;;;4994274;28;20045;-82
2024/01/15 04:08:52;;;;;;;12.35;5.85;;;;;;;;;;4997810;28;20038;-83
2024/01/15 04:11:17;;;;;;;8.93;5.15;;;;;;;;;;4975101;28;20496;-83
2024/01/15 04:13:43;;;;;;;12.20;5.60;;;;;;;;;;4995610;28;20459;-82
2024/01/15 04:16:08;;;;;;;10.63;5.30;;;;;;;;;;4995369;28;20477;-83
2024/01/15 04:18:34;;;;;;;11.02;5.15;;;;;;;;;;4993829;28;20098;-82
2024/01/15 04:20:59;;;;;;;9.10;4.18;;;;;;;;;;4994748;28;20038;-82
2024/01/15 04:23:25;;;;;;;8.25;4.15;;;;;;;;;;4996806;28;20022;-83
2024/01/15 04:25:50;;;;;;;10.15;4.90;;;;;;;;;;4978670;28;20534;-83
2024/01/15 04:28:15;;;;;;;9.27;4.05;;;;;;;;;;4996701;28;20412;-83
2024/01/15 04:30:41;;;;;;;7.30;3.20;;;;;;;;;;4993338;28;20113;-83
2024/01/15 04:33:06;;;;;;;6.93;3.33;;;;;;;;;;4997237;28;20034;-83
2024/01/15 04:35:32;;;;;;;7.40;3.20;;;;;;;;;;4991368;28;20034;-83
2024/01/15 04:37:58;;;;;;;6.85;3.20;;;;;;;;;;4975212;28;20039;-83
2024/01/15 04:40:27;;;;;;;6.68;3.10;;;;;;;;;;4991907;28;20058;-83
2024/01/15 04:42:54;;;;;;;4.15;2.20;;;;;;;;;;4979244;28;20038;-83
2024/01/15 04:45:22;;;;;;;5.82;2.20;;;;;;;;;;4970809;28;20031;-83
2024/01/15 04:47:48;;;;;;;5.10;2.15;;;;;;;;;;4978027;28;20068;-83
2024/01/15 04:50:14;;;;;;;6.05;2.55;;;;;;;;;;4971256;28;20045;-82
2024/01/15 04:52:39;;;;;;;5.53;2.33;;;;;;;;;;4996972;28;20026;-81
2024/01/15 04:55:05;;;;;;;5.80;2.58;;;;;;;;;;4986060;28;20390;-82
2024/01/15 04:57:30;;;;;;;5.85;2.67;;;;;;;;;;4997146;28;20037;-82
2024/01/15 04:59:56;;;;;;;5.20;2.65;;;;;;;;;;4982790;28;20046;-82
2024/01/15 05:02:21;;;;;;;5.28;2.30;;;;;;;;;;4992720;28;20058;-82
2024/01/15 05:04:47;;;;;;;5.22;2.47;;;;;;;;;;4997104;28;20037;-82
2024/01/15 05:07:12;;;;;;;6.25;2.67;;;;;;;;;;4964078;28;20109;-82
2024/01/15 05:09:38;;;;;;;6.70;3.28;;;;;;;;;;4995949;28;20033;-81
2024/01/15 05:12:04;;;;;;;6.00;2.85;;;;;;;;;;4994126;28;20440;-83
2024/01/15 05:14:29;;;;;;;6.57;2.75;;;;;;;;;;4996998;28;20100;-82
2024/01/15 05:16:54;;;;;;;6.47;2.63;;;;;;;;;;4994570;28;20042;-82
2024/01/15 05:19:20;;;;;;;3.80;2.15;;;;;;;;;;4992009;28;20037;-83
2024/01/15 05:21:45;;;;;;;5.50;2.45;;;;;;;;;;4991288;28;20496;-82
2024/01/15 05:24:11;;;;;;;5.07;2.13;;;;;;;;;;4989850;28;20046;-82
2024/01/15 05:26:36;;;;;;;5.38;2.58;;;;;;;;;;4995098;28;20030;-82
2024/01/15 05:29:02;;;;;;;5.75;2.38;;;;;;;;;;4995650;28;20145;-82
2024/01/15 05:31:27;;;;;;;3.95;1.90;;;;;;;;;;4979399;28;20484;-83
2024/01/15 05:33:53;;;;;;;4.30;2.20;;;;;;;;;;4978170;28;20038;-82
2024/01/15 05:36:18;;;;;;;5.00;2.58;;;;;;;;;;4996211;28;20057;-82
2024/01/15 05:38:44;;;;;;;4.28;2.25;;;;;;;;;;4995606;28;20038;-82
2024/01/15 05:41:10;;;;;;;4.97;2.22;;;;;;;;;;4976288;28;20042;-83
2024/01/15 05:43:35;;;;;;;4.75;2.55;;;;;;;;;;4994502;28;20042;-82
2024/01/15 05:46:01;;;;;;;3.85;1.98;;;;;;;;;;4991768;28;20045;-82
2024/01/15 05:48:26;;;;;;;4.15;2.00;;;;;;;;;;4992005;28;20030;-82
2024/01/15 05:50:52;;;;;;;4.68;2.10;;;;;;;;;;4996188;28;20447;-83
2024/01/15 05:53:17;;;;;;;4.68;2.17;;;;;;;;;;4993712;28;20031;-83
2024/01/15 05:55:43;;;;;;;3.33;1.80;;;;;;;;;;4994650;28;20030;-83
2024/01/15 05:58:08;;;;;;;3.30;1.80;;;;;;;;;;4992366;28;20030;-83
2024/01/15 06:00:35;;;;;;;4.25;2.17;;;;;;;;;;4996103;28;20436;-83
2024/01/15 06:03:00;;;;;;;3.42;1.70;;;;;;;;;;4972457;28;20056;-83
2024/01/15 06:05:26;;;;;;;3.72;2.05;;;;;;;;;;4989766;28;20054;-82
2024/01/15 06:07:51;;;;;;;3.90;1.80;;;;;;;;;;4994700;28;20050;-83
2024/01/15 06:10:17;;;;;;;3.95;1.85;;;;;;;;;;4992741;28;20027;-82
2024/01/15 06:12:44;;;;;;;2.97;1.63;;;;;;;;;;4988068;28;20536;-84
2024/01/15 06:15:09;;;;;;;3.70;1.70;;;;;;;;;;4993248;28;20496;-86
2024/01/15 06:17:35;;;;;;;3.30;1.50;;;;;;;;;;4973414;28;20085;-85
2024/01/15 06:20:01;;;;;;;4.35;1.65;;;;;;;;;;4999937;28;20334;-83
2024/01/15 06:22:26;;;;;;;4.22;1.60;;;;;;;;;;4999505;28;20496;-84
2024/01/15 06:24:52;;;;;;;3.88;1.60;;;;;;;;;;4998995;28;20078;-84
2024/01/15 06:27:17;;;;;;;3.28;1.60;;;;;;;;;;4992622;28;20042;-83
2024/01/15 06:29:47;;;;;;;2.83;1.55;;;;;;;;;;4999397;28;20038;-87
2024/01/15 06:32:12;;;;;;;3.10;1.38;;;;;;;;;;4977148;28;20125;-85
2024/01/15 06:34:38;;;;;;;2.05;1.00;;;;;;;;;;4996240;28;20046;-82
2024/01/15 06:37:03;;;;;;;36.97;1.70;;;;;;;;;;4992506;28;20488;-83
2024/01/15 06:39:29;;;;;;;2.83;1.40;;;;;;;;;;4984724;28;20041;-83
2024/01/15 06:41:54;;;;;;;2.42;1.40;;;;;;;;;;4975183;28;20428;-83
2024/01/15 06:44:21;;;;;;;2.80;1.65;;;;;;;;;;4990462;28;20073;-83
2024/01/15 06:46:47;;;;;;;2.70;1.40;;;;;;;;;;4988197;28;20080;-83
2024/01/15 06:49:13;;;;;;;2.78;1.40;;;;;;;;;;4988122;28;20034;-83
2024/01/15 06:51:39;;;;;;;2.92;1.60;;;;;;;;;;4991629;28;20022;-84
2024/01/15 06:54:05;;;;;;;2.42;1.30;;;;;;;;;;4991533;28;20027;-83
2024/01/15 06:56:31;;;;;;;2.60;1.38;;;;;;;;;;4989870;28;20594;-83
2024/01/15 06:58:57;;;;;;;2.30;1.55;;;;;;;;;;4992117;28;20034;-84
2024/01/15 07:01:22;;;;;;;3.15;1.27;;;;;;;;;;4991808;28;20114;-84
2024/01/15 07:03:48;;;;;;;3.22;1.23;;;;;;;;;;4979919;28;20057;-85
2024/01/15 07:06:13;;;;;;;2.80;1.15;;;;;;;;;;4985692;28;20050;-84
2024/01/15 07:08:40;;;;;;;2.58;1.35;;;;;;;;;;4989829;28;20022;-84
2024/01/15 07:11:06;;;;;;;3.00;1.42;;;;;;;;;;4975583;28;20031;-84
2024/01/15 07:13:32;;;;;;;3.45;1.35;;;;;;;;;;4984825;28;20129;-84
2024/01/15 07:15:57;;;;;;;2.80;1.38;;;;;;;;;;4995977;28;20030;-84
2024/01/15 07:18:23;;;;;;;3.40;1.50;;;;;;;;;;4988478;28;20068;-85
2024/01/15 07:20:49;;;;;;;2.50;1.33;;;;;;;;;;4979406;28;20039;-84
2024/01/15 07:23:14;;;;;;;2.60;1.40;;;;;;;;;;4974785;28;20058;-85
2024/01/15 07:25:39;;;;;;;2.60;1.35;;;;;;;;;;4994741;28;20111;-85
2024/01/15 07:28:05;;;;;;;3.15;1.20;;;;;;;;;;4975776;28;20068;-86
2024/01/15 07:30:31;;;;;;;2.08;1.20;;;;;;;;;;4993083;28;20026;-86
2024/01/15 07:32:56;;;;;;;2.20;1.23;;;;;;;;;;4992469;28;20034;-84
2024/01/15 07:35:22;;;;;;;1.85;1.20;;;;;;;;;;4992747;28;20558;-85
2024/01/15 07:37:47;;;;;;;2.05;1.23;;;;;;;;;;4992276;28;20030;-85
2024/01/15 07:40:13;;;;;;;4.32;1.30;;;;;;;;;;4993777;28;20454;-86
2024/01/15 07:42:38;;;;;;;5.53;1.70;;;;;;;;;;4977785;28;20066;-86
2024/01/15 07:45:05;;;;;;;2.30;1.50;;;;;;;;;;4995056;28;20408;-87
2024/01/15 07:47:30;;;;;;;3.03;1.40;;;;;;;;;;4975376;28;20030;-85
2024/01/15 07:49:56;;;;;;;3.30;1.60;;;;;;;;;;4994565;28;20046;-86
2024/01/15 07:52:21;;;;;;;3.65;2.22;;;;;;;;;;4990933;28;20126;-85
2024/01/15 07:54:47;;;;;;;3.88;1.70;;;;;;;;;;4991385;28;20034;-85
2024/01/15 07:57:13;;;;;;;3.17;1.63;;;;;;;;;;4992475;28;20562;-85
2024/01/15 07:59:38;;;;;;;2.85;1.45;;;;;;;;;;4960524;28;20022;-84
2024/01/15 08:02:04;;;;;;;3.10;1.50;;;;;;;;;;4998121;28;20061;-84
2024/01/15 08:04:29;;;;;;;4.88;1.65;;;;;;;;;;4996319;28;20034;-87
2024/01/15 08:06:55;;;;;;;5.28;2.10;;;;;;;;;;4992819;28;20058;-84
2024/01/15 08:09:20;;;;;;;5.88;2.20;;;;;;;;;;4995164;28;20050;-84
2024/01/15 08:11:46;;;;;;;2.67;1.55;;;;;;;;;;4998717;28;20033;-84
2024/01/15 08:14:13;;;;;;;4.13;1.75;;;;;;;;;;5001909;28;20522;-84
2024/01/15 08:16:38;;;;;;;4.65;2.20;;;;;;;;;;5002269;28;20030;-84
2024/01/15 08:19:05;;;;;;;3.70;1.88;;;;;;;;;;4999975;28;20495;-84
2024/01/15 08:21:31;;;;;;;2.90;1.90;;;;;;;;;;5003175;28;20107;-84
2024/01/15 08:24:02;;;;;;;3.60;1.85;;;;;;;;;;5004684;28;20145;-87
2024/01/15 08:26:30;;;;;;;4.55;2.00;;;;;;;;;;5001795;28;20045;-90
2024/01/15 08:28:56;;;;;;;3.95;2.03;;;;;;;;;;4998070;28;20045;-88
2024/01/15 08:31:23;;;;;;;3.70;1.83;;;;;;;;;;5002806;28;20077;-84
2024/01/15 08:33:48;;;;;;;5.38;2.10;;;;;;;;;;5000100;28;20030;-84
2024/01/15 08:36:14;;;;;;;3.17;1.58;;;;;;;;;;4999252;28;20030;-84
2024/01/15 08:38:39;;;;;;;3.95;2.05;;;;;;;;;;5001544;28;20536;-83
2024/01/15 08:41:05;;;;;;;3.63;2.00;;;;;;;;;;4982554;28;20038;-83
2024/01/15 08:43:31;;;;;;;3.30;1.77;;;;;;;;;;5000454;28;20030;-83
2024/01/15 08:45:56;;;;;;;5.05;2.25;;;;;;;;;;5002960;28;20034;-83
2024/01/15 08:48:22;;;;;;;4.70;1.70;;;;;;;;;;4996398;28;20023;-84
2024/01/15 08:50:47;;;;;;;5.93;2.35;;;;;;;;;;4999727;28;20026;-84
2024/01/15 08:53:14;;;;;;;4.30;2.28;;;;;;;;;;5000064;28;20042;-83
2024/01/15 08:55:39;;;;;;;3.90;2.25;;;;;;;;;;5001132;28;20384;-83
2024/01/15 08:58:06;;;;;;;4.38;2.45;;;;;;;;;;4976636;28;20042;-85
2024/01/15 09:00:31;;;;;;;5.85;2.78;;;;;;;;;;5000592;28;20459;-85
2024/01/15 09:02:57;;;;;;;4.38;2.15;;;;;;;;;;5001109;28;20062;-85
2024/01/15 09:05:23;;;;;;;5.10;2.63;;;;;;;;;;4984580;28;20015;-85
2024/01/15 09:07:48;;;;;;;4.10;2.15;;;;;;;;;;5000511;28;20034;-84
2024/01/15 09:10:14;;;;;;;4.05;1.70;;;;;;;;;;4994968;28;20038;-83
2024/01/15 09:12:40;;;;;;;4.28;1.80;;;;;;;;;;4998057;28;20045;-85
2024/01/15 09:15:06;;;;;;;4.20;1.90;;;;;;;;;;4974676;28;20029;-83
2024/01/15 09:17:32;;;;;;;4.25;1.92;;;;;;;;;;4990738;28;20056;-83
2024/01/15 09:19:57;;;;;;;6.68;1.80;;;;;;;;;;4992977;28;20484;-84
2024/01/15 09:22:23;;;;;;;4.82;1.77;;;;;;;;;;4967092;28;20093;-84
2024/01/15 09:24:48;;;;;;;5.20;2.40;;;;;;;;;;4975131;28;20010;-83
2024/01/15 09:27:14;;;;;;;4.25;2.00;;;;;;;;;;4992082;28;20042;-83
2024/01/15 09:29:42;;;;;;;4.93;2.47;;;;;;;;;;4988501;28;20057;-86
2024/01/15 09:32:08;;;;;;;4.13;2.38;;;;;;;;;;4986410;28;20069;-87
2024/01/15 09:34:35;;;;;;;3.60;2.10;;;;;;;;;;4990650;28;20034;-86
2024/01/15 09:37:00;;;;;;;4.60;2.42;;;;;;;;;;4991286;28;20030;-85
2024/01/15 09:39:27;;;;;;;3.70;2.15;;;;;;;;;;4991287;28;20027;-87
2024/01/15 09:41:53;;;;;;;4.47;2.45;;;;;;;;;;4992956;28;20499;-86
2024/01/15 09:44:19;;;;;;;4.85;2.38;;;;;;;;;;4990513;28;20041;-83
2024/01/15 09:46:46;;;;;;;5.32;2.50;;;;;;;;;;4978704;28;20022;-83
2024/01/15 09:49:12;;;;;;;4.63;2.35;;;;;;;;;;4974607;28;20088;-84
2024/01/15 09:51:39;;;;;;;6.82;2.25;;;;;;;;;;4968801;28;20062;-84
2024/01/15 09:54:05;;;;;;;6.50;2.42;;;;;;;;;;4982730;28;20126;-85
2024/01/15 09:56:31;;;;;;;5.45;2.30;;;;;;;;;;4991279;28;20120;-84
2024/01/15 09:58:57;;;;;;;5.22;2.55;;;;;;;;;;4990629;28;20727;-85
2024/01/15 10:01:24;;;;;;;4.45;2.58;;;;;;;;;;4989759;28;20038;-84
2024/01/15 10:03:50;;;;;;;4.38;2.60;;;;;;;;;;4989799;28;20038;-83
2024/01/15 10:06:17;;;;;;;5.88;2.60;;;;;;;;;;4973855;28;20085;-83
2024/01/15 10:08:50;;;;;;;5.95;2.70;;;;;;;;;;4966542;28;20046;-83
2024/01/15 10:11:16;;;;;;;;;;;;;;;;;;4990505;28;20038;-81
2024/01/15 10:13:45;;;;;;;4.95;2.85;;;;;;;;;;4984703;28;20004;-83
2024/01/15 10:16:11;;;;;;;5.50;2.80;;;;;;;;;;4989586;28;20066;-83
2024/01/15 10:18:36;;;;;;;5.45;2.80;;;;;;;;;;4975102;28;20057;-82
2024/01/15 10:21:08;;;;;;;4.63;2.75;;;;;;;;;;4992962;28;20520;-84
2024/01/15 10:23:34;;;;;;;5.93;2.63;;;;;;;;;;4996028;28;20492;-85
2024/01/15 10:26:00;;;;;;;6.85;3.00;;;;;;;;;;4993611;28;20046;-84
2024/01/15 10:28:30;;;;;;;7.55;2.78;;;;;;;;;;4994661;28;20026;-82
2024/01/15 10:30:58;;;;;;;5.80;2.90;;;;;;;;;;4971783;28;20045;-84
2024/01/15 10:33:27;;;;;;;7.38;3.03;;;;;;;;;;4989159;28;20027;-81
2024/01/15 10:35:58;;;;;;;5.93;2.85;;;;;;;;;;4988783;28;20050;-82
2024/01/15 10:38:24;;;;;;;6.57;3.00;;;;;;;;;;4989325;28;20506;-83
2024/01/15 10:40:53;;;;;;;7.60;3.05;;;;;;;;;;4990798;28;20068;-83
2024/01/15 10:43:18;;;;;;;8.00;3.30;;;;;;;;;;4989620;28;20053;-85
2024/01/15 10:45:48;;;;;;;7.43;3.05;;;;;;;;;;4996433;28;20488;-83
2024/01/15 10:48:15;;;;;;;9.60;3.80;;;;;;;;;;4994885;28;20485;-83
2024/01/15 10:50:41;;;;;;;6.25;3.22;;;;;;;;;;4993465;28;20068;-83
2024/01/15 10:53:09;;;;;;;5.85;3.20;;;;;;;;;;4992190;28;20034;-83
2024/01/15 10:55:37;;;;;;;8.07;3.58;;;;;;;;;;4975296;28;20038;-83
2024/01/15 10:58:03;;;;;;;8.20;3.08;;;;;;;;;;4992651;28;20185;-83
2024/01/15 11:00:30;;;;;;;7.32;3.40;;;;;;;;;;4993968;28;20041;-83
2024/01/15 11:02:56;;;;;;;6.28;3.30;;;;;;;;;;4995685;28;20567;-83
2024/01/15 11:05:22;;;;;;;6.57;3.13;;;;;;;;;;4972836;28;20043;-83
2024/01/15 11:07:54;;;;;;;6.85;2.92;;;;;;;;;;4994195;28;20042;-83
2024/01/15 11:10:44;;;;;;;7.05;2.67;;;;;;;;;;4994849;28;20558;-82
2024/01/15 11:13:32;;;;;;;8.55;2.35;;;;;;;;;;4977305;28;20524;-82
2024/01/15 11:16:03;;;;;;;6.32;2.60;;;;;;;;;;4995539;28;20034;-83
2024/01/15 11:18:39;;;;;;;5.82;2.30;;;;;;;;;;4989470;28;20066;-83
2024/01/15 11:21:17;;;;;;;5.65;2.33;;;;;;;;;;4991768;28;20578;-83
2024/01/15 11:23:46;;;;;;;4.32;2.22;;;;;;;;;;4991815;28;20074;-83
2024/01/15 11:26:30;;;;;;;5.90;2.58;;;;;;;;;;4991053;28;20046;-83
2024/01/15 11:28:59;;;;;;;4.47;2.20;;;;;;;;;;4993801;28;20031;-82
2024/01/15 11:31:47;;;;;;;5.80;2.28;;;;;;;;;;4994192;28;20054;-81
2024/01/15 11:34:13;;;;;;;5.50;2.20;;;;;;;;;;4993525;28;20381;-81
2024/01/15 11:36:53;;;;;;;5.85;2.28;;;;;;;;;;4995259;28;20030;-82
2024/01/15 11:39:28;;;;;;;5.47;2.42;;;;;;;;;;4992629;28;20041;-82
2024/01/15 11:41:58;;;;;;;4.00;2.28;;;;;;;;;;4993603;28;20030;-80
2024/01/15 11:44:23;;;;;;;4.82;2.08;;;;;;;;;;4993213;28;20161;-82
2024/01/15 11:47:03;;;;;;;6.95;2.30;;;;;;;;;;4991721;28;20117;-84
2024/01/15 11:49:47;;;;;;;6.53;2.33;;;;;;;;;;4992037;28;20026;-82
2024/01/15 11:52:15;;;;;;;;;;;;;;;;;;4992431;28;20186;-82
2024/01/15 11:54:48;;;;;;;4.47;2.10;;;;;;;;;;4977718;28;19928;-82
2024/01/15 11:57:25;;;;;;;4.25;2.13;;;;;;;;;;4991536;28;20161;-80
2024/01/15 11:59:51;;;;;;;3.97;1.90;;;;;;;;;;4990304;28;20034;-80
2024/01/15 12:02:16;;;;;;;3.88;2.10;;;;;;;;;;4990199;28;20039;-81
2024/01/15 12:04:42;;;;;;;5.53;2.10;;;;;;;;;;4994775;28;20030;-80
2024/01/15 12:07:08;;;;;;;4.50;2.00;;;;;;;;;;4975941;28;20061;-80
2024/01/15 12:09:33;;;;;;;4.60;2.30;;;;;;;;;;4991710;28;20550;-81
2024/01/15 12:12:06;;;;;;;4.18;2.20;;;;;;;;;;4993311;28;20110;-81
2024/01/15 12:14:32;;;;;;;5.63;2.38;;;;;;;;;;4994042;28;20073;-82
2024/01/15 12:16:58;;;;;;;4.32;2.20;;;;;;;;;;4992926;28;20061;-84
2024/01/15 12:19:24;;;;;;;5.22;2.42;;;;;;;;;;4992261;28;20516;-82
2024/01/15 12:21:51;;;;;;;5.55;2.72;;;;;;;;;;4991551;28;20030;-83
2024/01/15 12:24:17;;;;;;;8.65;3.58;;;;;;;;;;4971384;28;20034;-83
2024/01/15 12:26:43;;;;;;;6.88;3.60;;;;;;;;;;4994117;28;20045;-83
2024/01/15 12:29:10;;;;;;;4.00;2.40;;;;;;;;;;4990193;28;20053;-83
2024/01/15 12:31:36;;;;;;;4.05;2.10;;;;;;;;;;4993480;28;20095;-82
2024/01/15 12:34:02;;;;;;;2.40;1.50;;;;;;;;;;4993045;28;20117;-83
2024/01/15 12:36:30;;;;;;;3.53;1.77;;;;;;;;;;4994048;28;20037;-83
2024/01/15 12:39:02;;;;;;;2.65;1.60;;;;;;;;;;4988518;28;20168;-82
2024/01/15 12:41:28;;;;;;;3.03;1.35;;;;;;;;;;4991141;28;20030;-82
2024/01/15 12:43:54;;;;;;;2.72;1.45;;;;;;;;;;4990036;28;20124;-82
2024/01/15 12:46:20;;;;;;;1.58;0.95;;;;;;;;;;4993714;28;20492;-83
2024/01/15 12:48:45;;;;;;;1.83;1.00;;;;;;;;;;4990916;28;20034;-83
2024/01/15 12:51:11;;;;;;;1.83;1.10;;;;;;;;;;4989894;28;20065;-83
2024/01/15 12:53:37;;;;;;;1.33;0.80;;;;;;;;;;4992407;28;20030;-83
2024/01/15 12:56:02;;;;;;;2.20;1.10;;;;;;;;;;4993091;28;20411;-82
2024/01/15 12:58:28;;;;;;;2.45;0.95;;;;;;;;;;4994195;28;20038;-84
2024/01/15 13:00:54;;;;;;;1.48;1.00;;;;;;;;;;4992886;28;20073;-82
2024/01/15 13:03:19;;;;;;;1.30;0.90;;;;;;;;;;4967904;28;20026;-82
2024/01/15 13:05:45;;;;;;;1.33;0.90;;;;;;;;;;4996214;28;20085;-84
2024/01/15 13:08:10;;;;;;;3.00;1.60;;;;;;;;;;4994970;28;20042;-83
2024/01/15 13:10:36;;;;;;;2.30;1.20;;;;;;;;;;4992242;28;20034;-83
2024/01/15 13:13:02;;;;;;;3.25;1.50;;;;;;;;;;4992951;28;20034;-82
2024/01/15 13:15:27;;;;;;;2.03;1.13;;;;;;;;;;4991614;28;20502;-83
2024/01/15 13:17:53;;;;;;;1.67;1.17;;;;;;;;;;4992755;28;20038;-82
2024/01/15 13:20:18;;;;;;;2.15;1.20;;;;;;;;;;4990509;28;20403;-83
2024/01/15 13:22:44;;;;;;;1.63;1.10;;;;;;;;;;4990769;28;20037;-81
2024/01/15 13:25:11;;;;;;;3.20;1.70;;;;;;;;;;4988302;28;20054;-83
2024/01/15 13:27:36;;;;;;;3.20;1.58;;;;;;;;;;4980287;28;20030;-83
2024/01/15 13:30:03;;;;;;;3.50;1.88;;;;;;;;;;4989754;28;20092;-82
2024/01/15 13:32:29;;;;;;;2.47;1.42;;;;;;;;;;4992058;28;20031;-82
2024/01/15 13:34:56;;;;;;;3.40;1.73;;;;;;;;;;4990901;28;20031;-82
2024/01/15 13:37:23;;;;;;;2.92;1.55;;;;;;;;;;4988937;28;20049;-81
2024/01/15 13:39:51;;;;;;;3.13;1.60;;;;;;;;;;4991951;28;20064;-83
2024/01/15 13:42:17;;;;;;;1.60;1.00;;;;;;;;;;4964498;28;20057;-83
2024/01/15 13:44:43;;;;;;;2.58;1.50;;;;;;;;;;4991885;28;20058;-84
2024/01/15 13:47:08;;;;;;;4.70;2.38;;;;;;;;;;4991527;28;20046;-82
2024/01/15 13:49:35;;;;;;;2.88;1.65;;;;;;;;;;4957699;28;20093;-82
2024/01/15 13:52:03;;;;;;;2.00;1.40;;;;;;;;;;4991067;28;20180;-82
2024/01/15 13:54:30;;;;;;;3.55;1.40;;;;;;;;;;4988827;28;20054;-82
2024/01/15 13:56:55;;;;;;;4.60;1.52;;;;;;;;;;4991710;28;20041;-82
2024/01/15 13:59:21;;;;;;;2.47;1.30;;;;;;;;;;4969300;28;20129;-81
2024/01/15 14:01:47;;;;;;;3.47;1.75;;;;;;;;;;4992797;28;20433;-81
2024/01/15 14:04:13;;;;;;;2.20;1.40;;;;;;;;;;4987829;28;20030;-81
2024/01/15 14:06:39;;;;;;;2.50;1.58;;;;;;;;;;4992441;28;20496;-81
2024/01/15 14:09:04;;;;;;;3.38;1.40;;;;;;;;;;4972117;28;20062;-81
2024/01/15 14:11:31;;;;;;;3.83;1.40;;;;;;;;;;4983713;28;20022;-82
2024/01/15 14:13:56;;;;;;;2.20;1.10;;;;;;;;;;4992596;28;20334;-81
2024/01/15 14:16:22;;;;;;;2.42;1.40;;;;;;;;;;4989321;28;20111;-82
2024/01/15 14:18:47;;;;;;;1.65;1.10;;;;;;;;;;4992311;28;20485;-79
2024/01/15 14:21:14;;;;;;;2.15;1.20;;;;;;;;;;4992510;28;20034;-79
2024/01/15 14:23:39;;;;;;;2.22;1.20;;;;;;;;;;4998164;28;20025;-82
2024/01/15 14:26:05;;;;;;;2.40;1.10;;;;;;;;;;4996000;28;20034;-82
2024/01/15 14:28:30;;;;;;;1.77;1.10;;;;;;;;;;4997801;28;20396;-82
2024/01/15 14:30:58;;;;;;;1.52;1.00;;;;;;;;;;4997848;28;20034;-82
2024/01/15 14:33:23;;;;;;;2.10;1.20;;;;;;;;;;4993712;28;20501;-81
2024/01/15 14:35:49;;;;;;;1.33;0.90;;;;;;;;;;4996866;28;20575;-81
2024/01/15 14:38:14;;;;;;;3.17;0.93;;;;;;;;;;4996217;28;20037;-81